createdAt,value
2024-01-12T00:00:47.324Z,9.98
2024-01-12T00:03:49.439Z,9.52
2024-01-12T00:06:51.600Z,9.90
2024-01-12T00:09:53.718Z,11.15
2024-01-12T00:12:55.769Z,9.38
2024-01-12T00:15:58.037Z,8.68
2024-01-12T00:19:00.175Z,12.37
2024-01-12T00:22:02.312Z,11.13
2024-01-12T00:25:04.623Z,11.02
2024-01-12T00:28:07.093Z,10.63
2024-01-12T00:31:09.151Z,8.25
2024-01-12T00:34:11.544Z,9.45
2024-01-12T00:37:13.772Z,2.35
2024-01-12T00:40:15.947Z,8.88
2024-01-12T00:43:18.058Z,10.60
2024-01-12T00:46:20.209Z,11.68
2024-01-12T00:49:22.820Z,10.03
2024-01-12T00:52:24.981Z,9.48
2024-01-12T00:55:27.212Z,10.45
2024-01-12T00:58:29.346Z,10.87
2024-01-12T01:01:31.482Z,9.75
2024-01-12T01:04:33.664Z,10.90
2024-01-12T01:07:35.744Z,10.18
2024-01-12T01:10:37.893Z,12.40
2024-01-12T01:13:40.266Z,8.43
2024-01-12T01:16:42.507Z,9.90
2024-01-12T01:19:44.707Z,6.80
2024-01-12T01:22:46.907Z,9.77
2024-01-12T01:25:49.067Z,9.32
2024-01-12T01:28:51.419Z,4.93
2024-01-12T01:31:53.516Z,7.88
2024-01-12T01:34:55.745Z,8.63
2024-01-12T01:37:57.905Z,7.50
2024-01-12T01:40:59.945Z,8.68
2024-01-12T01:44:02.042Z,7.20
2024-01-12T01:47:04.587Z,9.02
2024-01-12T01:50:06.876Z,7.63
2024-01-12T01:53:09.838Z,9.27
2024-01-12T01:56:12.386Z,8.63
2024-01-12T01:59:14.808Z,9.00
2024-01-12T02:02:17.262Z,8.13
2024-01-12T02:05:19.897Z,11.88
2024-01-12T02:08:22.124Z,8.40
2024-01-12T02:11:24.377Z,9.60
2024-01-12T02:14:26.567Z,10.70
2024-01-12T02:17:28.831Z,9.45
2024-01-12T02:20:31.138Z,8.50
2024-01-12T02:23:33.280Z,9.00
2024-01-12T02:26:35.691Z,9.80
2024-01-12T02:29:37.978Z,9.03
2024-01-12T02:32:40.126Z,8.82
2024-01-12T02:35:42.391Z,8.43
2024-01-12T02:38:51.251Z,8.15
2024-01-12T02:41:55.795Z,10.85
2024-01-12T02:44:58.059Z,5.47
2024-01-12T02:48:00.389Z,8.65
2024-01-12T02:51:02.697Z,8.80
2024-01-12T02:54:05.712Z,6.13
2024-01-12T02:57:08.119Z,8.77
2024-01-12T03:00:10.789Z,7.73
2024-01-12T03:03:12.981Z,10.98
2024-01-12T03:06:15.467Z,9.07
2024-01-12T03:09:17.656Z,6.47
2024-01-12T03:12:19.810Z,8.55
2024-01-12T03:15:21.908Z,7.50
2024-01-12T03:18:24.296Z,7.40
2024-01-12T03:21:26.502Z,6.37
2024-01-12T03:24:28.669Z,8.20
2024-01-12T03:27:30.781Z,9.23
2024-01-12T03:30:32.939Z,3.20
2024-01-12T03:33:35.244Z,7.38
2024-01-12T03:36:37.399Z,10.88
2024-01-12T03:39:39.640Z,6.30
2024-01-12T03:42:41.833Z,8.15
2024-01-12T03:45:44.051Z,6.85
2024-01-12T03:48:46.935Z,4.70
2024-01-12T03:51:55.044Z,5.50
2024-01-12T03:54:57.254Z,5.80
2024-01-12T03:57:59.563Z,7.78
2024-01-12T04:01:01.768Z,6.10
2024-01-12T04:04:04.213Z,6.03
2024-01-12T04:07:06.437Z,4.97
2024-01-12T04:10:08.753Z,5.85
2024-01-12T04:13:10.907Z,8.05
2024-01-12T04:16:12.963Z,3.72
2024-01-12T04:19:15.147Z,9.93
2024-01-12T04:22:17.342Z,6.93
2024-01-12T04:25:19.409Z,7.05
2024-01-12T04:28:21.545Z,7.35
2024-01-12T04:31:23.686Z,8.77
2024-01-12T04:34:26.004Z,6.70
2024-01-12T04:37:28.135Z,5.80
2024-01-12T04:40:30.200Z,7.50
2024-01-12T04:43:32.302Z,7.75
2024-01-12T04:46:34.415Z,10.00
2024-01-12T04:49:36.584Z,9.70
2024-01-12T04:52:38.727Z,9.57
2024-01-12T04:55:40.914Z,9.27
2024-01-12T04:58:43.292Z,6.50
2024-01-12T05:01:45.452Z,6.63
2024-01-12T05:04:47.571Z,8.98
2024-01-12T05:07:49.861Z,4.30
2024-01-12T05:10:51.968Z,7.38
2024-01-12T05:13:54.044Z,7.00
2024-01-12T05:16:56.214Z,11.25
2024-01-12T05:20:00.062Z,9.30
2024-01-12T05:23:03.735Z,7.33
2024-01-12T05:26:06.386Z,8.75
2024-01-12T05:29:09.475Z,7.32
2024-01-12T05:32:11.652Z,8.93
2024-01-12T05:35:15.847Z,6.32
2024-01-12T05:38:18.609Z,8.05
2024-01-12T05:41:20.811Z,6.30
2024-01-12T05:44:22.971Z,10.65
2024-01-12T05:47:25.171Z,7.75
2024-01-12T05:50:27.363Z,8.77
2024-01-12T05:53:29.813Z,7.67
2024-01-12T05:56:31.999Z,10.95
2024-01-12T05:59:34.772Z,7.30
2024-01-12T06:02:36.956Z,6.33
2024-01-12T06:05:39.165Z,6.80
2024-01-12T06:08:41.484Z,7.93
2024-01-12T06:11:44.354Z,9.15
2024-01-12T06:14:47.944Z,8.75
2024-01-12T06:17:50.266Z,7.45
2024-01-12T06:20:52.703Z,11.15
2024-01-12T06:23:54.953Z,10.00
2024-01-12T06:26:57.185Z,9.13
2024-01-12T06:29:59.485Z,4.30
2024-01-12T06:33:01.908Z,10.03
2024-01-12T06:36:04.488Z,9.93
2024-01-12T06:39:06.948Z,10.27
2024-01-12T06:42:09.232Z,7.78
2024-01-12T06:45:14.564Z,11.05
2024-01-12T06:48:16.919Z,12.40
2024-01-12T06:51:22.754Z,10.65
2024-01-12T06:54:24.959Z,10.17
2024-01-12T06:57:27.023Z,14.75
2024-01-12T07:00:29.262Z,11.82
2024-01-12T07:03:31.429Z,10.40
2024-01-12T07:06:33.725Z,12.30
2024-01-12T07:09:36.001Z,10.38
2024-01-12T07:12:38.635Z,10.27
2024-01-12T07:15:40.739Z,10.63
2024-01-12T07:18:43.974Z,10.68
2024-01-12T07:21:46.264Z,7.63
2024-01-12T07:24:49.076Z,8.17
2024-01-12T07:27:51.196Z,16.00
2024-01-12T07:30:54.376Z,14.27
2024-01-12T07:33:56.777Z,14.43
2024-01-12T07:36:59.390Z,15.38
2024-01-12T07:40:01.676Z,13.13
2024-01-12T07:43:05.211Z,13.52
2024-01-12T07:46:08.524Z,18.60
2024-01-12T07:49:12.057Z,14.77
2024-01-12T07:52:19.305Z,12.30
2024-01-12T07:55:24.239Z,16.90
2024-01-12T07:58:29.187Z,13.43
2024-01-12T08:01:33.059Z,13.88
2024-01-12T08:04:37.731Z,14.17
2024-01-12T08:07:40.859Z,13.75
2024-01-12T08:10:43.288Z,13.25
2024-01-12T08:13:46.306Z,13.38
2024-01-12T08:16:48.756Z,15.40
2024-01-12T08:19:50.835Z,16.02
2024-01-12T08:22:53.138Z,14.85
2024-01-12T08:25:55.700Z,17.40
2024-01-12T08:29:02.626Z,16.00
2024-01-12T08:32:05.027Z,16.88
2024-01-12T08:35:07.406Z,13.50
2024-01-12T08:38:10.656Z,15.85
2024-01-12T08:41:14.017Z,21.40
2024-01-12T08:44:16.627Z,22.35
2024-01-12T08:47:20.763Z,24.35
2024-01-12T08:50:23.027Z,29.63
2024-01-12T08:53:25.256Z,22.13
2024-01-12T08:56:27.670Z,21.10
2024-01-12T08:59:29.987Z,11.15
2024-01-12T09:02:32.298Z,17.27
2024-01-12T09:05:34.791Z,17.00
2024-01-12T09:08:37.158Z,17.00
2024-01-12T09:11:40.095Z,15.50
2024-01-12T09:14:42.236Z,14.93
2024-01-12T09:17:44.431Z,15.77
2024-01-12T09:20:46.626Z,13.15
2024-01-12T09:23:48.864Z,15.43
2024-01-12T09:26:51.057Z,13.83
2024-01-12T09:29:53.847Z,12.38
2024-01-12T09:32:56.226Z,14.02
2024-01-12T09:35:58.514Z,9.60
2024-01-12T09:39:00.732Z,9.35
2024-01-12T09:42:06.032Z,11.52
2024-01-12T09:45:19.185Z,10.93
2024-01-12T09:48:25.750Z,11.23
2024-01-12T09:51:29.008Z,9.52
2024-01-12T09:54:31.329Z,8.32
2024-01-12T09:57:34.689Z,7.20
2024-01-12T10:00:38.609Z,9.60
2024-01-12T10:03:41.127Z,10.27
2024-01-12T10:06:43.798Z,7.77
2024-01-12T10:09:45.984Z,9.18
2024-01-12T10:12:50.922Z,8.05
2024-01-12T10:15:53.099Z,8.43
2024-01-12T10:18:55.916Z,5.75
2024-01-12T10:21:58.323Z,5.25
2024-01-12T10:25:01.324Z,8.60
2024-01-12T10:28:03.784Z,6.13
2024-01-12T10:31:10.112Z,6.03
2024-01-12T10:34:16.418Z,4.03
2024-01-12T10:37:20.138Z,5.37
2024-01-12T10:40:23.808Z,4.97
2024-01-12T10:43:27.412Z,3.78
2024-01-12T10:46:41.609Z,4.63
2024-01-12T10:49:51.181Z,2.70
2024-01-12T10:53:10.936Z,2.80
2024-01-12T10:56:13.825Z,2.08
2024-01-12T10:59:16.139Z,1.57
2024-01-12T11:02:19.299Z,2.17
2024-01-12T11:05:22.780Z,1.70
2024-01-12T11:08:26.646Z,1.40
2024-01-12T11:11:42.281Z,1.95
2024-01-12T11:14:44.587Z,1.58
2024-01-12T11:17:46.851Z,1.92
2024-01-12T11:20:49.328Z,1.75
2024-01-12T11:23:51.859Z,1.55
2024-01-12T11:26:54.137Z,2.00
2024-01-12T11:29:58.644Z,2.37
2024-01-12T11:33:05.786Z,1.25
2024-01-12T11:36:13.579Z,2.25
2024-01-12T11:39:15.842Z,1.40
2024-01-12T11:42:19.458Z,1.15
2024-01-12T11:45:21.697Z,1.67
2024-01-12T11:48:24.469Z,1.90
2024-01-12T11:51:28.624Z,1.65
2024-01-12T11:54:30.862Z,2.33
2024-01-12T11:57:32.995Z,3.60
2024-01-12T12:00:35.430Z,1.87
2024-01-12T12:03:37.771Z,2.40
2024-01-12T12:06:39.919Z,1.20
2024-01-12T12:09:42.112Z,2.47
2024-01-12T12:12:44.645Z,1.17
2024-01-12T12:15:46.980Z,2.30
2024-01-12T12:18:49.262Z,2.08
2024-01-12T12:21:51.628Z,1.83
2024-01-12T12:24:54.093Z,2.78
2024-01-12T12:27:56.357Z,3.58
2024-01-12T12:30:58.537Z,2.07
2024-01-12T12:34:01.004Z,1.48
2024-01-12T12:37:06.417Z,2.45
2024-01-12T12:40:12.718Z,3.20
2024-01-12T12:43:16.384Z,2.58
2024-01-12T12:46:18.608Z,2.25
2024-01-12T12:49:20.930Z,2.38
2024-01-12T12:52:23.561Z,2.50
2024-01-12T12:55:25.691Z,0.85
2024-01-12T12:58:27.890Z,1.92
2024-01-12T13:01:30.136Z,1.30
2024-01-12T13:04:32.460Z,1.60
2024-01-12T13:07:34.735Z,1.58
2024-01-12T13:10:37.060Z,1.57
2024-01-12T13:13:39.245Z,1.83
2024-01-12T13:16:41.371Z,2.13
2024-01-12T13:19:44.235Z,1.45
2024-01-12T13:22:46.428Z,2.90
2024-01-12T13:25:49.476Z,2.42
2024-01-12T13:28:53.006Z,2.13
2024-01-12T13:31:55.251Z,1.73
2024-01-12T13:34:58.001Z,2.10
2024-01-12T13:38:00.438Z,2.53
2024-01-12T13:41:03.566Z,1.93
2024-01-12T13:44:05.890Z,2.33
2024-01-12T13:47:08.778Z,2.38
2024-01-12T13:50:11.390Z,2.45
2024-01-12T13:53:13.795Z,1.63
2024-01-12T13:56:16.119Z,2.72
2024-01-12T13:59:18.305Z,2.08
2024-01-12T14:02:20.674Z,1.63
2024-01-12T14:05:22.974Z,1.80
2024-01-12T14:08:26.192Z,1.98
2024-01-12T14:11:28.541Z,2.10
2024-01-12T14:14:30.919Z,4.15
2024-01-12T14:17:34.561Z,2.80
2024-01-12T14:20:37.116Z,3.90
2024-01-12T14:23:39.347Z,2.95
2024-01-12T14:26:41.647Z,3.80
2024-01-12T14:29:43.876Z,4.53
2024-01-12T14:32:46.290Z,3.33
2024-01-12T14:35:48.783Z,4.03
2024-01-12T14:38:51.093Z,4.95
2024-01-12T14:41:53.873Z,5.07
2024-01-12T14:44:56.112Z,6.43
2024-01-12T14:48:00.431Z,7.07
2024-01-12T14:51:05.629Z,5.78
2024-01-12T14:54:08.058Z,5.30
2024-01-12T14:57:10.190Z,7.00
2024-01-12T15:00:12.871Z,7.03
2024-01-12T15:03:15.334Z,5.17
2024-01-12T15:06:17.837Z,4.80
2024-01-12T15:09:20.359Z,5.88
2024-01-12T15:12:22.682Z,3.73
2024-01-12T15:15:26.059Z,5.45
2024-01-12T15:18:28.433Z,4.53
2024-01-12T15:21:32.052Z,6.10
2024-01-12T15:24:36.921Z,6.75
2024-01-12T15:27:39.846Z,5.13
2024-01-12T15:30:42.102Z,5.90
2024-01-12T15:33:47.396Z,5.57
2024-01-12T15:36:49.545Z,6.05
2024-01-12T15:39:51.640Z,5.90
2024-01-12T15:42:53.839Z,6.30
2024-01-12T15:45:56.503Z,6.70
2024-01-12T15:48:58.791Z,7.38
2024-01-12T15:52:01.066Z,12.48
2024-01-12T15:55:03.368Z,6.88
2024-01-12T15:58:05.924Z,6.50
2024-01-12T16:01:08.107Z,6.07
2024-01-12T16:04:10.827Z,7.80
2024-01-12T16:07:13.062Z,7.10
2024-01-12T16:10:15.213Z,4.45
2024-01-12T16:13:17.355Z,9.60
2024-01-12T16:16:19.518Z,6.68
2024-01-12T16:19:21.882Z,8.35
2024-01-12T16:22:24.055Z,5.47
2024-01-12T16:25:26.085Z,6.03
2024-01-12T16:28:29.062Z,7.45
2024-01-12T16:31:31.285Z,9.05
2024-01-12T16:34:33.566Z,11.13
2024-01-12T16:37:36.045Z,11.32
2024-01-12T16:40:38.176Z,12.07
2024-01-12T16:43:40.299Z,11.83
2024-01-12T16:46:42.454Z,22.75
2024-01-12T16:49:44.630Z,23.23
2024-01-12T16:52:46.845Z,14.20
2024-01-12T16:55:48.905Z,11.32
2024-01-12T16:58:51.538Z,8.57
2024-01-12T17:01:53.627Z,5.90
2024-01-12T17:04:55.857Z,9.63
2024-01-12T17:07:58.012Z,9.82
2024-01-12T17:11:00.575Z,9.00
2024-01-12T17:14:02.928Z,8.40
2024-01-12T17:17:13.482Z,7.53
2024-01-12T17:20:21.863Z,7.35
2024-01-12T17:23:24.104Z,8.82
2024-01-12T17:26:26.326Z,8.93
2024-01-12T17:29:29.433Z,8.98
2024-01-12T17:32:31.636Z,8.95
2024-01-12T17:35:34.301Z,7.47
2024-01-12T17:38:36.841Z,8.82
2024-01-12T17:41:39.283Z,8.13
2024-01-12T17:44:42.332Z,7.50
2024-01-12T17:47:44.680Z,8.82
2024-01-12T17:50:47.006Z,7.07
2024-01-12T17:53:50.798Z,6.57
2024-01-12T17:56:54.508Z,8.30
2024-01-12T17:59:56.923Z,10.95
2024-01-12T18:02:59.153Z,3.97
2024-01-12T18:06:04.444Z,9.87
2024-01-12T18:09:07.192Z,8.73
2024-01-12T18:12:09.593Z,8.27
2024-01-12T18:15:12.135Z,11.50
2024-01-12T18:18:14.574Z,7.57
2024-01-12T18:21:17.067Z,10.93
2024-01-12T18:24:19.282Z,7.28
2024-01-12T18:27:21.716Z,8.32
2024-01-12T18:30:24.147Z,10.85
2024-01-12T18:33:27.034Z,11.25
2024-01-12T18:36:33.130Z,7.73
2024-01-12T18:39:36.699Z,8.90
2024-01-12T18:42:39.226Z,9.38
2024-01-12T18:45:41.531Z,6.33
2024-01-12T18:48:44.000Z,7.50
2024-01-12T18:51:46.471Z,7.38
2024-01-12T18:54:48.573Z,10.48
2024-01-12T18:57:51.300Z,9.70
2024-01-12T19:00:53.775Z,6.97
2024-01-12T19:03:56.045Z,10.65
2024-01-12T19:06:58.260Z,7.43
2024-01-12T19:10:00.426Z,7.60
2024-01-12T19:13:02.686Z,5.65
2024-01-12T19:16:06.223Z,10.03
2024-01-12T19:19:08.671Z,10.18
2024-01-12T19:22:11.095Z,7.57
2024-01-12T19:25:13.466Z,9.57
2024-01-12T19:28:15.913Z,10.65
2024-01-12T19:31:21.896Z,7.07
2024-01-12T19:34:24.577Z,9.68
2024-01-12T19:37:28.925Z,9.90
2024-01-12T19:40:31.488Z,13.30
2024-01-12T19:43:34.500Z,10.95
2024-01-12T19:46:36.736Z,9.50
2024-01-12T19:49:42.762Z,9.50
2024-01-12T19:52:45.320Z,4.78
2024-01-12T19:55:47.563Z,5.40
2024-01-12T19:58:52.000Z,8.13
2024-01-12T20:01:56.186Z,10.93
2024-01-12T20:04:59.143Z,13.85
2024-01-12T20:08:01.364Z,10.97
2024-01-12T20:11:06.262Z,16.63
2024-01-12T20:14:09.844Z,5.68
2024-01-12T20:17:12.037Z,8.10
2024-01-12T20:20:14.618Z,7.50
2024-01-12T20:23:16.821Z,11.18
2024-01-12T20:26:19.511Z,15.55
2024-01-12T20:29:22.644Z,17.25
2024-01-12T20:32:25.698Z,15.43
2024-01-12T20:35:27.917Z,10.57
2024-01-12T20:38:30.016Z,12.37
2024-01-12T20:41:32.860Z,8.93
2024-01-12T20:44:35.097Z,9.98
2024-01-12T20:47:37.302Z,8.83
2024-01-12T20:50:39.601Z,11.13
2024-01-12T20:53:41.888Z,9.65
2024-01-12T20:56:44.427Z,9.77
2024-01-12T20:59:46.619Z,9.25
2024-01-12T21:02:48.909Z,10.02
2024-01-12T21:05:51.453Z,9.75
2024-01-12T21:08:53.680Z,7.07
2024-01-12T21:11:56.079Z,7.53
2024-01-12T21:14:58.564Z,9.65
2024-01-12T21:18:00.862Z,10.30
2024-01-12T21:21:03.224Z,6.88
2024-01-12T21:24:05.423Z,8.45
2024-01-12T21:27:07.811Z,6.28
2024-01-12T21:30:10.472Z,8.80
2024-01-12T21:33:12.853Z,8.80
2024-01-12T21:36:15.187Z,12.75
2024-01-12T21:39:17.484Z,7.87
2024-01-12T21:42:20.037Z,10.43
2024-01-12T21:45:22.380Z,7.90
2024-01-12T21:48:24.656Z,9.70
2024-01-12T21:51:27.238Z,10.50
2024-01-12T21:54:29.451Z,9.85
2024-01-12T21:57:31.552Z,9.15
2024-01-12T22:00:34.231Z,12.80
2024-01-12T22:03:36.841Z,11.20
2024-01-12T22:06:39.115Z,11.02
2024-01-12T22:09:41.436Z,14.27
2024-01-12T22:12:43.545Z,16.38
2024-01-12T22:15:45.678Z,15.60
2024-01-12T22:18:47.829Z,15.70
2024-01-12T22:21:50.000Z,15.02
2024-01-12T22:24:52.098Z,17.48
2024-01-12T22:27:54.216Z,20.02
2024-01-12T22:30:56.428Z,22.80
2024-01-12T22:33:58.789Z,18.02
2024-01-12T22:37:00.885Z,12.90
2024-01-12T22:40:05.890Z,10.67
2024-01-12T22:43:10.577Z,12.15
2024-01-12T22:46:12.869Z,11.57
2024-01-12T22:49:15.215Z,11.27
2024-01-12T22:52:17.439Z,9.07
2024-01-12T22:55:19.598Z,10.07
2024-01-12T22:58:21.705Z,5.72
2024-01-12T23:01:23.791Z,8.25
2024-01-12T23:04:26.022Z,11.35
2024-01-12T23:07:29.880Z,8.82
2024-01-12T23:10:32.065Z,5.87
2024-01-12T23:13:34.775Z,9.77
2024-01-12T23:16:36.936Z,8.75
2024-01-12T23:19:39.378Z,8.77
2024-01-12T23:22:42.280Z,9.65
2024-01-12T23:25:44.425Z,9.82
2024-01-12T23:28:46.471Z,8.55
2024-01-12T23:31:48.654Z,8.68
2024-01-12T23:34:51.387Z,7.47
2024-01-12T23:37:53.501Z,9.85
2024-01-12T23:40:55.579Z,9.93
2024-01-12T23:44:00.136Z,11.07
2024-01-12T23:47:02.397Z,7.85
2024-01-12T23:50:05.070Z,9.10
2024-01-12T23:53:07.273Z,8.77
2024-01-12T23:56:11.548Z,11.10
2024-01-12T23:59:13.732Z,11.70
